Time;durP1;ratioP1;P1;durP2;ratioP2;P2;SDS_P1;SDS_P2;PMS_P1;PMS_P2;Temp;Humidity;BMP_temperature;BMP_pressure;BME280_temperature;BME280_humidity;BME280_pressure;Samples;Min_cycle;Max_cycle;Signal;HPM_P1;HPM_P2
2022/02/21 00:01:12;;;;;;;4.87;1.70;;;9.60;99.70;;;;;;5071871;28;20470;-71
2022/02/21 00:03:40;;;;;;;2.77;1.60;;;9.60;99.70;;;;;;5071885;28;20981;-70
2022/02/21 00:06:06;;;;;;;1.90;1.47;;;9.60;99.70;;;;;;5071630;28;20517;-70
2022/02/21 00:08:34;;;;;;;2.80;1.50;;;9.70;99.70;;;;;;5071616;28;20531;-70
2022/02/21 00:11:02;;;;;;;4.47;1.60;;;9.70;99.70;;;;;;5071638;28;20475;-70
2022/02/21 00:13:28;;;;;;;2.00;1.40;;;9.70;99.70;;;;;;5071394;28;20446;-70
2022/02/21 00:15:55;;;;;;;2.97;1.70;;;9.70;99.70;;;;;;5071284;28;20439;-70
2022/02/21 00:18:22;;;;;;;3.03;1.80;;;9.70;99.70;;;;;;5071695;28;20938;-70
2022/02/21 00:20:50;;;;;;;3.27;1.50;;;9.80;99.70;;;;;;5070739;28;20933;-70
2022/02/21 00:23:17;;;;;;;3.20;1.73;;;9.80;99.70;;;;;;5071595;28;20512;-71
2022/02/21 00:25:43;;;;;;;3.13;1.60;;;9.80;99.70;;;;;;5071401;28;20435;-70
2022/02/21 00:28:10;;;;;;;3.80;1.50;;;9.80;99.70;;;;;;5071457;28;21019;-70
2022/02/21 00:30:37;;;;;;;3.10;1.60;;;9.90;99.70;;;;;;5071514;28;20446;-71
2022/02/21 00:33:03;;;;;;;2.90;1.73;;;9.90;99.70;;;;;;5071592;28;20442;-70
2022/02/21 00:35:30;;;;;;;3.80;1.60;;;10.00;99.70;;;;;;5071476;28;20564;-70
2022/02/21 00:37:58;;;;;;;3.30;1.50;;;9.90;99.70;;;;;;5071260;28;20447;-70
2022/02/21 00:40:25;;;;;;;4.47;1.70;;;10.00;99.70;;;;;;5071226;28;20451;-71
2022/02/21 00:42:52;;;;;;;3.23;1.67;;;10.00;99.70;;;;;;5071143;28;20997;-70
2022/02/21 00:45:18;;;;;;;5.10;1.90;;;10.00;99.70;;;;;;5071043;28;20517;-70
2022/02/21 00:47:45;;;;;;;3.20;1.63;;;10.00;99.70;;;;;;5071152;28;20442;-70
2022/02/21 00:50:12;;;;;;;4.83;1.50;;;10.00;99.70;;;;;;5071004;28;20458;-70
2022/02/21 00:52:38;;;;;;;6.57;1.90;;;9.90;99.70;;;;;;5070922;28;20467;-70
2022/02/21 00:55:08;;;;;;;5.40;1.80;;;10.00;99.70;;;;;;5071041;28;20442;-70
2022/02/21 00:57:34;;;;;;;2.73;1.57;;;9.90;99.70;;;;;;5071160;28;20934;-71
2022/02/21 01:00:01;;;;;;;4.90;1.80;;;9.90;99.70;;;;;;5071039;28;20465;-71
2022/02/21 01:02:28;;;;;;;3.37;1.60;;;9.80;99.70;;;;;;5070886;28;20888;-70
2022/02/21 01:04:55;;;;;;;3.83;1.70;;;9.80;99.70;;;;;;5070695;28;20446;-70
2022/02/21 01:07:22;;;;;;;7.53;2.13;;;9.80;99.70;;;;;;5070932;28;20447;-70
2022/02/21 01:09:48;;;;;;;3.40;1.70;;;9.80;99.70;;;;;;5070946;28;21009;-70
2022/02/21 01:12:16;;;;;;;4.33;1.70;;;9.80;99.70;;;;;;5070806;28;20993;-70
2022/02/21 01:14:43;;;;;;;4.03;1.73;;;9.70;99.70;;;;;;5070625;28;20827;-70
2022/02/21 01:17:10;;;;;;;2.87;1.80;;;9.70;99.70;;;;;;5070638;28;20500;-71
2022/02/21 01:19:37;;;;;;;4.13;1.80;;;9.60;99.70;;;;;;5070820;28;20446;-70
2022/02/21 01:22:05;;;;;;;3.20;1.97;;;9.50;99.70;;;;;;5070681;28;20977;-71
2022/02/21 01:24:31;;;;;;;3.70;2.10;;;9.50;99.70;;;;;;5070850;28;20546;-70
2022/02/21 01:26:59;;;;;;;3.73;1.80;;;9.50;99.70;;;;;;5070415;28;20568;-70
2022/02/21 01:29:27;;;;;;;5.13;1.80;;;9.40;99.70;;;;;;5070896;28;20478;-70
2022/02/21 01:31:55;;;;;;;4.13;1.70;;;9.40;99.70;;;;;;5074543;28;20471;-69
2022/02/21 01:34:22;;;;;;;5.20;1.80;;;9.40;99.70;;;;;;5074694;28;20482;-70
2022/02/21 01:36:49;;;;;;;6.00;1.90;;;9.40;99.70;;;;;;5074492;28;20447;-69
2022/02/21 01:39:15;;;;;;;4.33;1.73;;;9.40;99.70;;;;;;5074592;28;20937;-70
2022/02/21 01:41:42;;;;;;;4.20;2.07;;;9.40;99.70;;;;;;5074445;28;20475;-70
2022/02/21 01:44:11;;;;;;;3.40;1.50;;;9.30;99.70;;;;;;5074654;28;20446;-69
2022/02/21 01:46:40;;;;;;;6.00;1.80;;;9.30;99.70;;;;;;5074321;28;20950;-69
2022/02/21 01:49:09;;;;;;;7.13;1.80;;;9.30;99.70;;;;;;5074182;28;20873;-69
2022/02/21 01:51:36;;;;;;;4.23;1.60;;;9.30;99.70;;;;;;5074419;28;20467;-70
2022/02/21 01:54:06;;;;;;;3.90;1.70;;;9.30;99.70;;;;;;5074516;28;20446;-70
2022/02/21 01:56:34;;;;;;;2.40;1.60;;;9.30;99.70;;;;;;5074201;28;20445;-69
2022/02/21 01:59:01;;;;;;;5.53;1.90;;;9.30;99.70;;;;;;5074053;28;20446;-70
2022/02/21 02:01:27;;;;;;;2.70;1.70;;;9.30;99.70;;;;;;5074189;28;20455;-70
2022/02/21 02:03:55;;;;;;;2.93;1.80;;;9.30;99.70;;;;;;5074185;28;20450;-69
2022/02/21 02:06:22;;;;;;;5.23;2.00;;;9.30;99.70;;;;;;5073804;28;20446;-69
2022/02/21 02:08:49;;;;;;;4.20;1.53;;;9.40;99.70;;;;;;5074000;28;20487;-69
2022/02/21 02:11:16;;;;;;;8.47;1.80;;;9.30;99.70;;;;;;5074015;28;20477;-69
2022/02/21 02:13:43;;;;;;;2.23;1.43;;;9.30;99.70;;;;;;5073842;28;20439;-69
2022/02/21 02:16:09;;;;;;;2.03;1.43;;;9.30;99.70;;;;;;5073817;28;20950;-70
2022/02/21 02:18:36;;;;;;;2.73;1.60;;;9.30;99.70;;;;;;5073826;28;20441;-70
2022/02/21 02:21:04;;;;;;;5.80;1.60;;;9.30;99.70;;;;;;5073848;28;20989;-70
2022/02/21 02:23:33;;;;;;;3.40;1.40;;;9.30;99.70;;;;;;5073884;28;20446;-69
2022/02/21 02:26:00;;;;;;;5.30;1.50;;;9.30;99.70;;;;;;5073580;28;20473;-70
2022/02/21 02:28:26;;;;;;;4.13;1.47;;;9.30;99.70;;;;;;5073323;28;20532;-70
2022/02/21 02:30:53;;;;;;;4.30;1.60;;;9.40;99.70;;;;;;5073910;28;20442;-70
2022/02/21 02:33:20;;;;;;;3.70;1.77;;;9.30;99.70;;;;;;5073607;28;20954;-70
2022/02/21 02:35:46;;;;;;;3.50;1.50;;;9.40;99.70;;;;;;5073391;28;20470;-70
2022/02/21 02:38:13;;;;;;;3.43;1.80;;;9.40;99.70;;;;;;5073554;28;20454;-70
2022/02/21 02:40:41;;;;;;;2.63;1.37;;;9.40;99.70;;;;;;5073520;28;20447;-69
2022/02/21 02:43:08;;;;;;;2.20;1.40;;;9.40;99.70;;;;;;5072898;28;20446;-70
2022/02/21 02:45:36;;;;;;;2.53;1.40;;;9.30;99.70;;;;;;5073338;28;20443;-69
2022/02/21 02:48:03;;;;;;;4.67;1.80;;;9.30;99.70;;;;;;5073319;28;20454;-69
2022/02/21 02:50:29;;;;;;;3.53;1.57;;;9.30;99.70;;;;;;5073434;28;20482;-70
2022/02/21 02:52:56;;;;;;;7.40;1.80;;;9.40;99.70;;;;;;5073384;28;20977;-69
2022/02/21 02:55:23;;;;;;;2.97;1.50;;;9.40;99.70;;;;;;5073100;28;20450;-70
2022/02/21 02:57:51;;;;;;;3.70;1.57;;;9.30;99.70;;;;;;5073386;28;20446;-69
2022/02/21 03:00:18;;;;;;;2.60;1.33;;;9.30;99.70;;;;;;5073209;28;20957;-70
2022/02/21 03:02:44;;;;;;;1.90;1.33;;;9.20;99.70;;;;;;5073271;28;20455;-70
2022/02/21 03:05:11;;;;;;;1.93;1.40;;;9.30;99.70;;;;;;5073215;28;20890;-70
2022/02/21 03:07:38;;;;;;;2.63;1.43;;;9.30;99.70;;;;;;5073112;28;20462;-68
2022/02/21 03:10:05;;;;;;;2.17;1.40;;;9.20;99.70;;;;;;5072968;28;20478;-70
2022/02/21 03:12:32;;;;;;;7.23;1.47;;;9.20;99.70;;;;;;5073059;28;20470;-70
2022/02/21 03:15:00;;;;;;;3.43;1.30;;;9.30;99.70;;;;;;5072360;28;20850;-70
2022/02/21 03:17:26;;;;;;;3.63;1.27;;;9.20;99.70;;;;;;5072985;28;20447;-70
2022/02/21 03:19:53;;;;;;;2.80;1.40;;;9.30;99.70;;;;;;5072759;28;20439;-69
2022/02/21 03:22:20;;;;;;;3.80;1.70;;;9.30;99.70;;;;;;5072836;28;20493;-69
2022/02/21 03:24:46;;;;;;;2.40;1.30;;;9.30;99.70;;;;;;5072444;28;20819;-68
2022/02/21 03:27:13;;;;;;;1.67;1.30;;;9.30;99.70;;;;;;5072793;28;20453;-70
2022/02/21 03:29:42;;;;;;;2.73;1.50;;;9.40;99.70;;;;;;5072315;28;20604;-70
2022/02/21 03:32:10;;;;;;;1.70;1.30;;;9.20;99.70;;;;;;5072676;28;20459;-70
2022/02/21 03:34:37;;;;;;;2.67;1.50;;;9.20;99.70;;;;;;5072281;28;20451;-69
2022/02/21 03:37:04;;;;;;;2.60;1.30;;;9.30;99.70;;;;;;5072347;28;20924;-69
2022/02/21 03:39:31;;;;;;;4.43;1.47;;;9.30;99.70;;;;;;5072384;28;20438;-69
2022/02/21 03:41:58;;;;;;;5.63;1.47;;;9.40;99.70;;;;;;5072383;28;20493;-69
2022/02/21 03:44:25;;;;;;;2.43;1.43;;;9.30;99.70;;;;;;5072428;28;20447;-70
2022/02/21 03:46:51;;;;;;;3.80;1.50;;;9.20;99.70;;;;;;5072074;28;20493;-69
2022/02/21 03:49:19;;;;;;;3.63;1.43;;;9.00;99.70;;;;;;5072179;28;20532;-69
2022/02/21 03:51:46;;;;;;;2.40;1.10;;;8.80;99.70;;;;;;5072366;28;20562;-72
2022/02/21 03:54:13;;;;;;;5.90;1.17;;;7.30;99.70;;;;;;5071634;28;20447;-69
2022/02/21 03:56:39;;;;;;;3.03;1.40;;;6.10;99.70;;;;;;5072330;28;20830;-69
2022/02/21 03:59:06;;;;;;;2.90;1.20;;;4.90;99.70;;;;;;5072283;28;20450;-69
2022/02/21 04:01:33;;;;;;;2.60;1.10;;;3.90;99.70;;;;;;5072466;28;20538;-69
2022/02/21 04:04:00;;;;;;;2.60;1.30;;;3.70;99.70;;;;;;5072232;28;20454;-68
2022/02/21 04:06:28;;;;;;;4.63;1.50;;;3.90;99.70;;;;;;5072251;28;20458;-68
2022/02/21 04:08:54;;;;;;;1.30;1.10;;;4.10;99.70;;;;;;5072106;28;20442;-69
2022/02/21 04:11:21;;;;;;;1.90;1.10;;;4.20;99.70;;;;;;5072240;28;20466;-68
2022/02/21 04:13:48;;;;;;;4.97;1.43;;;4.30;99.70;;;;;;5071988;28;20818;-68
2022/02/21 04:16:14;;;;;;;1.77;1.10;;;4.40;99.70;;;;;;5071968;28;20454;-69
2022/02/21 04:18:41;;;;;;;1.40;1.10;;;4.30;99.70;;;;;;5072036;28;20450;-69
2022/02/21 04:21:08;;;;;;;4.83;1.17;;;4.30;99.70;;;;;;5072034;28;20463;-69
2022/02/21 04:23:36;;;;;;;2.37;1.20;;;4.30;99.70;;;;;;5072098;28;20458;-69
2022/02/21 04:26:03;;;;;;;1.70;1.00;;;4.30;99.70;;;;;;5071907;28;20450;-69
2022/02/21 04:28:29;;;;;;;2.20;1.13;;;4.30;99.70;;;;;;5071855;28;20443;-69
2022/02/21 04:30:56;;;;;;;2.00;1.20;;;4.20;99.70;;;;;;5071657;28;20482;-69
2022/02/21 04:33:23;;;;;;;2.57;1.30;;;4.30;99.70;;;;;;5071987;28;20926;-68
2022/02/21 04:35:50;;;;;;;3.83;1.40;;;4.30;99.70;;;;;;5071743;28;20474;-69
2022/02/21 04:38:17;;;;;;;2.73;1.43;;;4.30;99.70;;;;;;5071720;28;20466;-69
2022/02/21 04:40:47;;;;;;;2.10;1.33;;;4.40;99.70;;;;;;5071582;28;20443;-70
2022/02/21 04:43:14;;;;;;;8.23;2.47;;;4.30;99.70;;;;;;5071786;28;20503;-69
2022/02/21 04:45:41;;;;;;;4.33;1.63;;;4.30;99.70;;;;;;5071243;28;20446;-69
2022/02/21 04:48:08;;;;;;;5.00;1.90;;;4.30;99.70;;;;;;5071810;28;20443;-69
2022/02/21 04:50:35;;;;;;;4.23;1.50;;;4.30;99.70;;;;;;5071410;28;20482;-69
2022/02/21 04:53:02;;;;;;;4.27;1.70;;;4.40;99.70;;;;;;5071359;28;20469;-69
2022/02/21 04:55:28;;;;;;;4.03;1.40;;;4.50;99.70;;;;;;5071212;28;20450;-69
2022/02/21 04:57:56;;;;;;;5.00;1.60;;;4.40;99.70;;;;;;5071441;28;20827;-69
2022/02/21 05:00:23;;;;;;;3.73;1.90;;;4.40;99.70;;;;;;5071354;28;20446;-69
2022/02/21 05:02:50;;;;;;;2.37;1.50;;;4.40;99.70;;;;;;5071383;28;20833;-70
2022/02/21 05:05:16;;;;;;;6.00;1.50;;;4.50;99.70;;;;;;5070864;28;20443;-69
2022/02/21 05:07:44;;;;;;;4.00;1.70;;;4.50;99.70;;;;;;5071359;28;20446;-70
2022/02/21 05:10:11;;;;;;;5.13;1.50;;;4.50;99.70;;;;;;5070928;28;20508;-70
2022/02/21 05:12:38;;;;;;;5.43;1.60;;;4.60;99.70;;;;;;5070977;28;20474;-70
2022/02/21 05:15:09;;;;;;;6.40;2.10;;;4.70;99.70;;;;;;5070410;28;20454;-69
2022/02/21 05:17:36;;;;;;;2.80;1.50;;;4.80;99.70;;;;;;5070986;28;20442;-69
2022/02/21 05:20:03;;;;;;;10.13;1.57;;;4.90;99.70;;;;;;5070967;28;20447;-70
2022/02/21 05:22:30;;;;;;;7.23;2.00;;;4.90;99.70;;;;;;5070816;28;20894;-69
2022/02/21 05:24:57;;;;;;;5.63;1.73;;;4.90;99.70;;;;;;5070635;28;20954;-70
2022/02/21 05:27:24;;;;;;;4.30;1.63;;;4.90;99.70;;;;;;5070772;28;20449;-70
2022/02/21 05:29:51;;;;;;;3.50;1.70;;;4.90;99.70;;;;;;5070687;28;20478;-69
2022/02/21 05:32:19;;;;;;;6.47;1.80;;;5.00;99.70;;;;;;5070930;28;20471;-70
2022/02/21 05:34:46;;;;;;;7.03;1.90;;;5.00;99.70;;;;;;5070439;28;20857;-67
2022/02/21 05:37:12;;;;;;;4.77;1.83;;;4.90;99.70;;;;;;5070867;28;20455;-69
2022/02/21 05:39:39;;;;;;;6.60;2.40;;;5.10;99.70;;;;;;5070892;28;20446;-70
2022/02/21 05:42:06;;;;;;;3.80;1.77;;;5.30;99.70;;;;;;5060448;28;20491;-69
2022/02/21 05:44:33;;;;;;;5.97;1.90;;;5.20;99.70;;;;;;5062781;28;20985;-70
2022/02/21 05:46:59;;;;;;;3.57;1.63;;;5.30;99.70;;;;;;5069973;28;20446;-69
2022/02/21 05:49:27;;;;;;;7.50;1.93;;;5.40;99.70;;;;;;5064446;28;20463;-70
2022/02/21 05:51:54;;;;;;;6.90;2.00;;;5.30;99.70;;;;;;5062410;28;20482;-70
2022/02/21 05:54:21;;;;;;;8.07;1.93;;;5.30;99.70;;;;;;5063482;28;20454;-69
2022/02/21 05:56:49;;;;;;;6.60;1.93;;;5.40;99.70;;;;;;5062037;28;20470;-70
2022/02/21 05:59:15;;;;;;;5.97;1.73;;;5.40;99.70;;;;;;5066958;28;20446;-70
2022/02/21 06:01:42;;;;;;;4.80;1.93;;;5.30;99.70;;;;;;5066408;28;20559;-70
2022/02/21 06:04:09;;;;;;;8.33;2.23;;;5.30;99.70;;;;;;5064537;28;20443;-68
2022/02/21 06:06:37;;;;;;;6.47;1.83;;;5.30;99.70;;;;;;5066963;28;20467;-69
2022/02/21 06:09:05;;;;;;;5.73;1.70;;;5.20;99.70;;;;;;5063346;28;20431;-69
2022/02/21 06:11:32;;;;;;;8.77;1.80;;;5.30;99.70;;;;;;5067776;28;20537;-69
2022/02/21 06:13:58;;;;;;;4.97;2.00;;;5.30;99.70;;;;;;5068240;28;20812;-70
2022/02/21 06:16:25;;;;;;;8.43;2.10;;;5.30;99.70;;;;;;5069238;28;20447;-70
2022/02/21 06:18:52;;;;;;;7.67;2.67;;;5.20;99.70;;;;;;5072028;28;20451;-70
2022/02/21 06:21:19;;;;;;;7.37;2.20;;;5.40;99.70;;;;;;5073382;28;20466;-70
2022/02/21 06:23:47;;;;;;;6.30;2.37;;;5.40;99.70;;;;;;5073529;28;20930;-70
2022/02/21 06:26:14;;;;;;;9.50;2.00;;;5.40;99.70;;;;;;5073669;28;20443;-70
2022/02/21 06:28:41;;;;;;;8.03;1.90;;;5.30;99.70;;;;;;5073559;28;20457;-70
2022/02/21 06:31:09;;;;;;;7.17;2.30;;;5.30;99.70;;;;;;5073609;28;20485;-70
2022/02/21 06:33:35;;;;;;;7.17;2.00;;;5.30;99.70;;;;;;5073753;28;20490;-70
2022/02/21 06:36:02;;;;;;;9.37;2.47;;;5.30;99.70;;;;;;5073459;28;20481;-70
2022/02/21 06:38:29;;;;;;;10.70;2.70;;;5.30;99.70;;;;;;5073391;28;20453;-71
2022/02/21 06:40:57;;;;;;;11.60;2.83;;;5.30;99.70;;;;;;5073289;28;20446;-70
2022/02/21 06:43:24;;;;;;;8.50;2.10;;;5.20;99.70;;;;;;5072644;28;20512;-70
2022/02/21 06:45:51;;;;;;;5.73;1.90;;;5.20;99.70;;;;;;5072364;28;20961;-70
2022/02/21 06:48:18;;;;;;;4.67;1.90;;;5.40;99.70;;;;;;5073494;28;20880;-70
2022/02/21 06:50:44;;;;;;;6.63;1.90;;;5.40;99.70;;;;;;5073154;28;20486;-70
2022/02/21 06:53:11;;;;;;;6.13;2.27;;;5.40;99.70;;;;;;5073302;28;20446;-70
2022/02/21 06:55:38;;;;;;;7.20;2.27;;;5.30;99.70;;;;;;5073089;28;20442;-70
2022/02/21 06:58:06;;;;;;;7.37;2.40;;;5.30;99.70;;;;;;5073329;28;20446;-70
2022/02/21 07:00:32;;;;;;;12.43;2.73;;;5.40;99.70;;;;;;5073214;28;20508;-71
2022/02/21 07:02:59;;;;;;;11.53;2.17;;;5.50;99.70;;;;;;5072485;28;20467;-71
2022/02/21 07:05:26;;;;;;;14.80;2.47;;;5.50;99.70;;;;;;5072227;28;20957;-71
2022/02/21 07:07:52;;;;;;;10.20;2.83;;;5.40;99.70;;;;;;5072317;28;20480;-70
2022/02/21 07:10:19;;;;;;;9.27;2.20;;;5.40;99.70;;;;;;5072911;28;20826;-70
2022/02/21 07:12:46;;;;;;;7.93;2.07;;;5.50;99.70;;;;;;5071982;28;20458;-68
2022/02/21 07:15:14;;;;;;;8.67;2.50;;;5.50;99.70;;;;;;5072475;28;20491;-70
2022/02/21 07:17:42;;;;;;;7.27;2.20;;;5.40;99.70;;;;;;5072509;28;20442;-71
2022/02/21 07:20:14;;;;;;;6.70;2.20;;;5.40;99.70;;;;;;5072665;28;20442;-71
2022/02/21 07:22:42;;;;;;;7.37;3.13;;;5.30;99.70;;;;;;5072808;28;20556;-71
2022/02/21 07:25:10;;;;;;;9.20;2.10;;;5.30;99.70;;;;;;5068056;28;20557;-71
2022/02/21 07:27:44;;;;;;;9.80;2.10;;;5.10;99.70;;;;;;5072082;28;20523;-70
2022/02/21 07:30:15;;;;;;;6.47;2.30;;;5.20;99.70;;;;;;5072019;28;20492;-71
2022/02/21 07:32:42;;;;;;;11.80;2.70;;;5.50;99.70;;;;;;5069597;28;20458;-70
2022/02/21 07:35:09;;;;;;;7.70;2.50;;;5.50;99.70;;;;;;5096760;22;20501;-65
2022/02/21 07:37:36;;;;;;;7.47;2.30;;;5.40;99.70;;;;;;5074530;28;20457;-64
2022/02/21 07:40:03;;;;;;;9.17;2.13;;;5.40;99.70;;;;;;5074162;28;20435;-65
2022/02/21 07:42:30;;;;;;;5.40;1.80;;;5.50;99.70;;;;;;5077816;28;20818;-65
2022/02/21 07:44:57;;;;;;;9.53;2.20;;;5.40;99.70;;;;;;5079465;28;20895;-65
2022/02/21 07:47:25;;;;;;;8.17;2.03;;;5.40;99.70;;;;;;5073384;28;20442;-65
2022/02/21 07:49:51;;;;;;;6.40;1.90;;;5.50;99.70;;;;;;5072564;28;20805;-65
2022/02/21 07:52:18;;;;;;;9.53;2.13;;;5.40;99.70;;;;;;5072610;28;20454;-64
2022/02/21 07:54:45;;;;;;;9.20;2.00;;;5.50;99.70;;;;;;5072712;28;20463;-65
2022/02/21 07:57:13;;;;;;;12.50;2.53;;;5.60;99.70;;;;;;5072740;28;20449;-65
2022/02/21 07:59:40;;;;;;;8.13;2.40;;;5.50;99.70;;;;;;5072386;28;20453;-64
2022/02/21 08:02:08;;;;;;;15.57;2.50;;;5.50;99.70;;;;;;5072631;28;20500;-65
2022/02/21 08:04:36;;;;;;;6.47;2.00;;;5.50;99.70;;;;;;5072463;28;20459;-65
2022/02/21 08:07:03;;;;;;;11.37;2.67;;;5.60;99.70;;;;;;5072266;28;20847;-65
2022/02/21 08:09:29;;;;;;;7.40;2.50;;;5.60;99.70;;;;;;5072415;28;20931;-65
2022/02/21 08:11:56;;;;;;;11.40;2.70;;;5.70;99.70;;;;;;5072495;28;20490;-65
2022/02/21 08:14:23;;;;;;;9.60;2.63;;;5.70;99.70;;;;;;5071708;28;20471;-65
2022/02/21 08:16:49;;;;;;;9.47;2.60;;;5.90;99.70;;;;;;5071920;28;20449;-65
2022/02/21 08:19:16;;;;;;;12.33;2.30;;;6.30;99.70;;;;;;5071965;28;20473;-64
2022/02/21 08:21:44;;;;;;;10.23;3.73;;;6.50;99.70;;;;;;5072288;28;20447;-65
2022/02/21 08:24:11;;;;;;;6.93;2.77;;;6.70;99.70;;;;;;5072080;28;20467;-65
2022/02/21 08:26:38;;;;;;;15.13;2.60;;;6.50;99.70;;;;;;5071852;28;20450;-65
2022/02/21 08:29:04;;;;;;;10.73;2.10;;;6.20;99.70;;;;;;5071905;28;20439;-65
2022/02/21 08:31:31;;;;;;;7.03;2.23;;;6.30;99.70;;;;;;5071962;28;20483;-65
2022/02/21 08:33:58;;;;;;;8.37;2.23;;;6.20;99.70;;;;;;5071803;28;20482;-65
2022/02/21 08:36:24;;;;;;;14.80;3.60;;;6.20;99.70;;;;;;5071730;28;20829;-66
2022/02/21 08:38:53;;;;;;;9.47;2.30;;;6.30;99.70;;;;;;5071809;28;20451;-65
2022/02/21 08:41:20;;;;;;;9.93;2.70;;;6.40;99.70;;;;;;5068274;28;20969;-65
2022/02/21 08:43:46;;;;;;;6.70;2.43;;;6.60;99.70;;;;;;5068764;28;20447;-64
2022/02/21 08:46:13;;;;;;;11.50;2.60;;;6.80;99.70;;;;;;5052860;28;20455;-64
2022/02/21 08:48:40;;;;;;;16.20;2.50;;;6.60;99.70;;;;;;5053235;28;20470;-65
2022/02/21 08:51:07;;;;;;;8.37;2.33;;;6.40;99.70;;;;;;5053644;28;20483;-65
2022/02/21 08:53:34;;;;;;;13.53;2.37;;;6.30;99.70;;;;;;5052803;28;20455;-65
2022/02/21 08:56:03;;;;;;;10.40;2.57;;;6.20;99.70;;;;;;5053612;28;20451;-66
2022/02/21 08:58:30;;;;;;;7.13;2.27;;;6.20;99.70;;;;;;5052408;28;20451;-65
2022/02/21 09:00:57;;;;;;;11.73;2.50;;;6.30;99.70;;;;;;5053936;28;20448;-65
2022/02/21 09:03:26;;;;;;;16.27;2.70;;;6.30;99.70;;;;;;5052757;28;20447;-64
2022/02/21 09:05:53;;;;;;;9.47;2.77;;;6.40;99.70;;;;;;5053595;28;20470;-65
2022/02/21 09:08:20;;;;;;;13.30;2.33;;;6.60;99.70;;;;;;5052458;28;20901;-64
2022/02/21 09:10:47;;;;;;;9.77;2.93;;;6.80;99.70;;;;;;5066577;28;21979;-65
2022/02/21 09:13:15;;;;;;;9.90;2.63;;;7.10;99.70;;;;;;5069091;28;20451;-65
2022/02/21 09:15:42;;;;;;;11.00;2.67;;;7.40;99.70;;;;;;5067577;28;20467;-65
2022/02/21 09:18:09;;;;;;;12.03;2.63;;;7.70;99.70;;;;;;5068566;28;20482;-65
2022/02/21 09:20:38;;;;;;;6.10;2.27;;;7.90;99.70;;;;;;5057418;28;20447;-64
2022/02/21 09:23:05;;;;;;;8.80;2.20;;;7.80;99.70;;;;;;5052217;28;20556;-63
2022/02/21 09:25:32;;;;;;;8.27;2.30;;;8.00;99.70;;;;;;5052716;28;20471;-65
2022/02/21 09:27:58;;;;;;;7.10;2.50;;;8.20;99.70;;;;;;5052010;28;20447;-64
2022/02/21 09:30:26;;;;;;;8.47;2.73;;;8.20;99.70;;;;;;5052773;28;20443;-64
2022/02/21 09:32:53;;;;;;;5.20;1.97;;;8.10;99.70;;;;;;5052040;28;20955;-60
2022/02/21 09:35:21;;;;;;;11.67;2.33;;;8.30;99.70;;;;;;5051605;28;21025;-65
2022/02/21 09:37:47;;;;;;;7.90;2.67;;;8.40;99.70;;;;;;5052479;28;20475;-63
2022/02/21 09:40:15;;;;;;;7.60;2.83;;;8.20;99.70;;;;;;5052102;28;20451;-65
2022/02/21 09:42:42;;;;;;;11.30;2.40;;;8.10;99.70;;;;;;5063250;28;20436;-65
2022/02/21 09:45:10;;;;;;;8.13;2.70;;;8.10;99.70;;;;;;5051492;28;20554;-65
2022/02/21 09:47:38;;;;;;;6.10;2.33;;;8.40;99.70;;;;;;5053215;28;20439;-63
2022/02/21 09:50:06;;;;;;;15.07;2.80;;;8.30;99.70;;;;;;5051582;28;20443;-65
2022/02/21 09:52:33;;;;;;;8.63;2.37;;;7.80;99.70;;;;;;5053327;28;21006;-65
2022/02/21 09:55:00;;;;;;;10.20;2.17;;;7.40;99.70;;;;;;5055456;28;20529;-64
2022/02/21 09:57:27;;;;;;;7.80;2.47;;;7.80;99.70;;;;;;5057207;28;20448;-61
2022/02/21 09:59:54;;;;;;;5.47;2.30;;;7.90;99.70;;;;;;5055682;28;20455;-63
2022/02/21 10:02:23;;;;;;;5.57;2.07;;;8.00;99.70;;;;;;5057220;28;20954;-64
2022/02/21 10:05:09;;;;;;;9.80;2.50;;;7.90;99.70;;;;;;5055253;28;20471;-63
2022/02/21 10:07:37;;;;;;;6.10;2.10;;;8.40;99.70;;;;;;5056878;28;20487;-62
2022/02/21 10:10:04;;;;;;;8.27;2.03;;;9.10;99.70;;;;;;5055754;28;20805;-63
2022/02/21 10:12:31;;;;;;;13.10;2.60;;;8.60;99.70;;;;;;5056915;28;20479;-64
2022/02/21 10:14:58;;;;;;;11.43;2.53;;;8.70;99.70;;;;;;5054375;28;20500;-63
2022/02/21 10:17:25;;;;;;;7.90;2.33;;;8.20;99.70;;;;;;5056506;28;20454;-64
2022/02/21 10:20:06;;;;;;;7.73;2.37;;;8.30;99.70;;;;;;5059143;28;20483;-63
2022/02/21 10:22:33;;;;;;;5.80;2.07;;;8.30;99.70;;;;;;5056710;28;20450;-63
2022/02/21 10:25:00;;;;;;;7.20;2.47;;;8.20;99.70;;;;;;5054693;28;20475;-63
2022/02/21 10:27:29;;;;;;;10.50;2.70;;;8.30;99.70;;;;;;5056387;28;20447;-63
2022/02/21 10:30:00;;;;;;;5.03;2.47;;;8.50;99.70;;;;;;5055148;28;20962;-64
2022/02/21 10:32:28;;;;;;;8.53;1.90;;;8.30;99.70;;;;;;5056636;28;20886;-59
2022/02/21 10:34:56;;;;;;;5.93;2.13;;;7.70;99.70;;;;;;5057643;28;20470;-61
2022/02/21 10:37:26;;;;;;;9.03;2.30;;;7.70;99.70;;;;;;5070514;28;20447;-63
2022/02/21 10:40:05;;;;;;;9.80;3.00;;;7.80;99.70;;;;;;5072316;28;20825;-63
2022/02/21 10:42:32;;;;;;;5.77;2.07;;;7.80;99.70;;;;;;5070639;28;20449;-62
2022/02/21 10:45:10;;;;;;;8.90;1.90;;;7.80;99.70;;;;;;5062573;28;20463;-63
2022/02/21 10:47:37;;;;;;;8.13;2.33;;;7.70;99.70;;;;;;5056505;28;20471;-62
2022/02/21 10:50:04;;;;;;;8.83;2.40;;;8.00;99.70;;;;;;5065171;28;20442;-62
2022/02/21 10:52:35;;;;;;;5.67;1.90;;;8.00;99.70;;;;;;5061327;28;20502;-64
2022/02/21 10:55:05;;;;;;;5.20;1.93;;;8.20;99.70;;;;;;5071388;28;20466;-60
2022/02/21 10:57:40;;;;;;;7.10;2.00;;;8.30;99.70;;;;;;5070150;28;20462;-63
2022/02/21 11:00:09;;;;;;;5.37;1.83;;;8.30;99.70;;;;;;5071620;28;20885;-63
2022/02/21 11:02:40;;;;;;;7.57;2.07;;;8.10;99.70;;;;;;5070384;28;20439;-63
2022/02/21 11:05:09;;;;;;;13.37;2.40;;;8.00;99.70;;;;;;5070814;28;20546;-58
2022/02/21 11:07:41;;;;;;;6.33;1.90;;;8.10;99.70;;;;;;5069667;28;20482;-60
2022/02/21 11:10:08;;;;;;;9.90;2.27;;;8.10;99.70;;;;;;5072879;28;20461;-60
2022/02/21 11:12:39;;;;;;;5.87;2.00;;;8.20;99.70;;;;;;5072821;28;20963;-63
2022/02/21 11:15:06;;;;;;;6.70;2.10;;;8.30;99.70;;;;;;5072451;28;21225;-59
2022/02/21 11:17:35;;;;;;;8.00;1.80;;;8.40;99.70;;;;;;5073068;28;20435;-63
2022/02/21 11:20:03;;;;;;;8.03;1.63;;;8.60;99.70;;;;;;5072986;28;20497;-64
2022/02/21 11:22:30;;;;;;;4.13;1.77;;;8.40;99.70;;;;;;5072801;28;20904;-60
2022/02/21 11:25:06;;;;;;;7.87;2.70;;;8.40;99.70;;;;;;5072411;28;20474;-63
2022/02/21 11:27:41;;;;;;;4.93;1.70;;;8.70;99.70;;;;;;5072640;28;20454;-63
2022/02/21 11:30:11;;;;;;;9.33;2.20;;;8.70;99.70;;;;;;5072730;28;20445;-63
2022/02/21 11:32:40;;;;;;;5.67;1.97;;;8.40;99.70;;;;;;5072703;28;20493;-63
2022/02/21 11:35:16;;;;;;;7.63;1.83;;;8.10;99.70;;;;;;5072472;28;20904;-61
2022/02/21 11:37:43;;;;;;;6.83;2.13;;;8.10;99.70;;;;;;5072532;28;21006;-63
2022/02/21 11:40:12;;;;;;;7.13;2.23;;;7.90;99.70;;;;;;5073090;28;20451;-62
2022/02/21 11:42:39;;;;;;;9.27;2.10;;;7.70;99.70;;;;;;5072637;28;20534;-64
2022/02/21 11:45:21;;;;;;;4.50;2.33;;;7.90;99.70;;;;;;5072211;28;20496;-63
2022/02/21 11:47:48;;;;;;;6.93;1.90;;;7.80;99.70;;;;;;5072488;28;20478;-60
2022/02/21 11:50:26;;;;;;;48.60;3.30;;;7.80;99.70;;;;;;5072510;28;20449;-66
2022/02/21 11:52:54;;;;;;;7.60;2.20;;;7.80;99.70;;;;;;5072592;28;20517;-63
2022/02/21 11:55:40;;;;;;;5.53;1.80;;;7.60;99.70;;;;;;5072474;28;20546;-64
2022/02/21 11:58:38;;;;;;;3.20;1.70;;;7.70;99.70;;;;;;5072556;28;20796;-65
2022/02/21 12:01:20;;;;;;;8.50;3.10;;;7.60;99.70;;;;;;5072678;28;20887;-64
2022/02/21 12:04:12;;;;;;;9.47;2.20;;;7.60;99.70;;;;;;5072597;28;20457;-63
2022/02/21 12:06:51;;;;;;;8.30;2.10;;;8.00;99.70;;;;;;5071874;28;20447;-64
2022/02/21 12:09:17;;;;;;;5.80;2.20;;;8.30;99.70;;;;;;5072131;28;20442;-63
2022/02/21 12:11:45;;;;;;;10.70;2.50;;;8.20;99.70;;;;;;5072127;28;20914;-63
2022/02/21 12:14:20;;;;;;;7.17;1.77;;;8.20;99.70;;;;;;5071228;28;20466;-60
2022/02/21 12:17:08;;;;;;;5.50;1.87;;;8.40;99.70;;;;;;5070839;28;20454;-64
2022/02/21 12:19:40;;;;;;;5.70;2.13;;;8.30;99.70;;;;;;5071998;28;20446;-64
2022/02/21 12:22:15;;;;;;;5.70;1.90;;;8.30;99.70;;;;;;5071806;28;20473;-65
2022/02/21 12:25:14;;;;;;;4.73;1.90;;;8.20;99.70;;;;;;5071753;28;20977;-63
2022/02/21 12:28:17;;;;;;;7.97;1.90;;;8.20;99.70;;;;;;5071643;28;20541;-63
2022/02/21 12:30:48;;;;;;;6.83;1.93;;;8.20;99.70;;;;;;5071701;28;20439;-63
2022/02/21 12:33:23;;;;;;;7.30;1.80;;;8.20;99.70;;;;;;5071754;28;20483;-63
2022/02/21 12:35:54;;;;;;;5.63;1.70;;;8.10;99.70;;;;;;5071636;28;20996;-63
2022/02/21 12:38:22;;;;;;;3.33;1.70;;;8.30;99.70;;;;;;5071485;28;20458;-65
2022/02/21 12:41:04;;;;;;;9.20;2.33;;;8.20;99.70;;;;;;5071577;28;20454;-63
2022/02/21 12:43:51;;;;;;;10.40;1.90;;;8.10;99.70;;;;;;5071444;28;20453;-62
2022/02/21 12:46:20;;;;;;;3.30;1.47;;;8.20;99.70;;;;;;5071400;28;20976;-66
2022/02/21 12:48:47;;;;;;;4.77;2.30;;;8.10;99.70;;;;;;5071494;28;20949;-64
2022/02/21 12:51:25;;;;;;;6.30;1.87;;;8.00;99.70;;;;;;5071565;28;20443;-58
2022/02/21 12:53:57;;;;;;;5.53;1.70;;;8.00;99.70;;;;;;5071427;28;20458;-66
2022/02/21 12:56:24;;;;;;;5.73;1.93;;;8.00;99.70;;;;;;5071181;28;20817;-66
2022/02/21 12:58:53;;;;;;;7.27;1.73;;;8.00;99.70;;;;;;5071263;28;20857;-63
2022/02/21 13:01:21;;;;;;;7.83;2.67;;;8.00;99.70;;;;;;5071349;28;20985;-64